Terminal Aerodrome Forecast
Issued by NWS

Home | Current Version | Previous Version | Text Only | Print | Product List | Glossary On
Versions: 1 2 3 4 5 6 7 8 9 10 11 12 13 14 15
000
FTUS46 KPDT 041726
TAFBDN
TAF
KBDN 041726Z 0418/0518 00000KT P6SM SKC
     FM042000 32010G19KT P6SM SCT080
     FM050400 33008KT P6SM SKC
     FM051300 17004KT P6SM SKC=

USA.gov is the U.S. government's official web portal to all federal, state and local government web resources and services.